Terminal Aerodrome Forecast
Issued by NWS New Orleans/Baton Rouge, LA

Home | Current Version | Previous Version | Text Only | Print | Product List | Glossary On
Versions: 1 2 3 4 5 6 7 8 9 10 11 12 13 14 15
000
FTUS44 KLIX 222349
TAFBTR
TAF
KBTR 222349Z 2300/2324 07004KT P6SM BKN040
     FM230200 VRB03KT P6SM SCT200
     FM231500 11006KT P6SM SCT025 BKN080
     FM232200 13008KT P6SM BKN030=

USA.gov is the U.S. government's official web portal to all federal, state and local government web resources and services.